sensor_id;sensor_type;location;lat;lon;timestamp;P1;P2;P0
42410;PMS5003;28056;51.112;0.984;2023-11-21T00:00:25;21;19;
42410;PMS5003;28056;51.112;0.984;2023-11-21T00:02:52;21;21;
42410;PMS5003;28056;51.112;0.984;2023-11-21T00:05:19;19;17;
42410;PMS5003;28056;51.112;0.984;2023-11-21T00:07:47;16;16;
42410;PMS5003;28056;51.112;0.984;2023-11-21T00:10:14;12;12;
42410;PMS5003;28056;51.112;0.984;2023-11-21T00:12:42;16;16;
42410;PMS5003;28056;51.112;0.984;2023-11-21T00:15:10;15;15;
42410;PMS5003;28056;51.112;0.984;2023-11-21T00:17:37;21;18;
42410;PMS5003;28056;51.112;0.984;2023-11-21T00:20:05;13;13;
42410;PMS5003;28056;51.112;0.984;2023-11-21T00:22:33;24;16;
42410;PMS5003;28056;51.112;0.984;2023-11-21T00:25:02;16;13;
42410;PMS5003;28056;51.112;0.984;2023-11-21T00:27:29;16;15;
42410;PMS5003;28056;51.112;0.984;2023-11-21T00:29:57;19;17;
42410;PMS5003;28056;51.112;0.984;2023-11-21T00:32:24;15;14;
42410;PMS5003;28056;51.112;0.984;2023-11-21T00:34:51;12;12;
42410;PMS5003;28056;51.112;0.984;2023-11-21T00:37:18;11;11;
42410;PMS5003;28056;51.112;0.984;2023-11-21T00:39:45;11;11;
42410;PMS5003;28056;51.112;0.984;2023-11-21T00:42:12;12;11;
42410;PMS5003;28056;51.112;0.984;2023-11-21T00:44:40;12;11;
42410;PMS5003;28056;51.112;0.984;2023-11-21T00:47:08;7;7;
42410;PMS5003;28056;51.112;0.984;2023-11-21T00:49:35;10;10;
42410;PMS5003;28056;51.112;0.984;2023-11-21T00:52:01;12;11;
42410;PMS5003;28056;51.112;0.984;2023-11-21T00:54:29;10;7;
42410;PMS5003;28056;51.112;0.984;2023-11-21T00:56:56;10;10;
42410;PMS5003;28056;51.112;0.984;2023-11-21T00:59:24;10;10;
42410;PMS5003;28056;51.112;0.984;2023-11-21T01:04:52;8;8;
42410;PMS5003;28056;51.112;0.984;2023-11-21T01:07:19;12;10;
42410;PMS5003;28056;51.112;0.984;2023-11-21T01:09:46;12;12;
42410;PMS5003;28056;51.112;0.984;2023-11-21T01:12:14;10;8;
42410;PMS5003;28056;51.112;0.984;2023-11-21T01:14:41;13;11;
42410;PMS5003;28056;51.112;0.984;2023-11-21T01:17:09;13;11;
42410;PMS5003;28056;51.112;0.984;2023-11-21T01:19:36;16;15;
42410;PMS5003;28056;51.112;0.984;2023-11-21T01:22:04;15;13;
42410;PMS5003;28056;51.112;0.984;2023-11-21T01:24:31;10;10;
42410;PMS5003;28056;51.112;0.984;2023-11-21T01:26:59;10;10;
42410;PMS5003;28056;51.112;0.984;2023-11-21T01:29:26;11;11;
42410;PMS5003;28056;51.112;0.984;2023-11-21T01:31:54;15;12;
42410;PMS5003;28056;51.112;0.984;2023-11-21T01:34:21;13;13;
42410;PMS5003;28056;51.112;0.984;2023-11-21T01:36:49;15;12;
42410;PMS5003;28056;51.112;0.984;2023-11-21T01:39:16;16;16;
42410;PMS5003;28056;51.112;0.984;2023-11-21T01:41:43;12;12;
42410;PMS5003;28056;51.112;0.984;2023-11-21T01:44:10;12;10;
42410;PMS5003;28056;51.112;0.984;2023-11-21T01:46:38;17;15;
42410;PMS5003;28056;51.112;0.984;2023-11-21T01:49:07;12;12;
42410;PMS5003;28056;51.112;0.984;2023-11-21T01:51:35;12;12;
42410;PMS5003;28056;51.112;0.984;2023-11-21T01:54:04;11;11;
42410;PMS5003;28056;51.112;0.984;2023-11-21T01:56:31;14;12;
42410;PMS5003;28056;51.112;0.984;2023-11-21T01:58:59;9;9;
42410;PMS5003;28056;51.112;0.984;2023-11-21T02:01:27;11;11;
42410;PMS5003;28056;51.112;0.984;2023-11-21T02:03:55;11;11;
42410;PMS5003;28056;51.112;0.984;2023-11-21T02:06:23;17;15;
42410;PMS5003;28056;51.112;0.984;2023-11-21T02:08:50;12;11;
42410;PMS5003;28056;51.112;0.984;2023-11-21T02:11:18;11;11;
42410;PMS5003;28056;51.112;0.984;2023-11-21T02:13:45;8;8;
42410;PMS5003;28056;51.112;0.984;2023-11-21T02:16:12;8;8;
42410;PMS5003;28056;51.112;0.984;2023-11-21T02:18:40;11;11;
42410;PMS5003;28056;51.112;0.984;2023-11-21T02:21:07;7;7;
42410;PMS5003;28056;51.112;0.984;2023-11-21T02:23:35;11;7;
42410;PMS5003;28056;51.112;0.984;2023-11-21T02:26:02;6;6;
42410;PMS5003;28056;51.112;0.984;2023-11-21T02:28:29;12;8;
42410;PMS5003;28056;51.112;0.984;2023-11-21T02:30:57;8;8;
42410;PMS5003;28056;51.112;0.984;2023-11-21T02:33:24;7;7;
42410;PMS5003;28056;51.112;0.984;2023-11-21T02:35:52;6;6;
42410;PMS5003;28056;51.112;0.984;2023-11-21T02:38:20;6;3;
42410;PMS5003;28056;51.112;0.984;2023-11-21T02:40:48;2;2;
42410;PMS5003;28056;51.112;0.984;2023-11-21T02:43:15;6;5;
42410;PMS5003;28056;51.112;0.984;2023-11-21T02:45:43;7;7;
42410;PMS5003;28056;51.112;0.984;2023-11-21T02:48:10;6;6;
42410;PMS5003;28056;51.112;0.984;2023-11-21T02:50:38;3;3;
42410;PMS5003;28056;51.112;0.984;2023-11-21T02:53:06;6;6;
42410;PMS5003;28056;51.112;0.984;2023-11-21T02:55:34;6;6;
42410;PMS5003;28056;51.112;0.984;2023-11-21T02:58:01;6;6;
42410;PMS5003;28056;51.112;0.984;2023-11-21T03:00:28;7;7;
42410;PMS5003;28056;51.112;0.984;2023-11-21T03:02:56;6;4;
42410;PMS5003;28056;51.112;0.984;2023-11-21T03:05:24;6;6;
42410;PMS5003;28056;51.112;0.984;2023-11-21T03:07:52;7;7;
42410;PMS5003;28056;51.112;0.984;2023-11-21T03:10:19;7;6;
42410;PMS5003;28056;51.112;0.984;2023-11-21T03:12:45;7;4;
42410;PMS5003;28056;51.112;0.984;2023-11-21T03:15:13;7;4;
42410;PMS5003;28056;51.112;0.984;2023-11-21T03:17:41;3;3;
42410;PMS5003;28056;51.112;0.984;2023-11-21T03:20:09;4;4;
42410;PMS5003;28056;51.112;0.984;2023-11-21T03:22:37;3;3;
42410;PMS5003;28056;51.112;0.984;2023-11-21T03:25:04;6;4;
42410;PMS5003;28056;51.112;0.984;2023-11-21T03:27:33;2;2;
42410;PMS5003;28056;51.112;0.984;2023-11-21T03:30:00;1;1;
42410;PMS5003;28056;51.112;0.984;2023-11-21T03:32:28;2;2;
42410;PMS5003;28056;51.112;0.984;2023-11-21T03:34:55;1;1;
42410;PMS5003;28056;51.112;0.984;2023-11-21T03:37:24;1;1;
42410;PMS5003;28056;51.112;0.984;2023-11-21T03:39:51;1;1;
42410;PMS5003;28056;51.112;0.984;2023-11-21T03:42:18;1;1;
42410;PMS5003;28056;51.112;0.984;2023-11-21T03:44:45;1;1;
42410;PMS5003;28056;51.112;0.984;2023-11-21T03:47:13;1;1;
42410;PMS5003;28056;51.112;0.984;2023-11-21T03:49:41;0;0;
42410;PMS5003;28056;51.112;0.984;2023-11-21T03:52:08;0;0;
42410;PMS5003;28056;51.112;0.984;2023-11-21T03:54:35;2;2;
42410;PMS5003;28056;51.112;0.984;2023-11-21T03:57:01;0;0;
42410;PMS5003;28056;51.112;0.984;2023-11-21T03:59:29;0;0;
42410;PMS5003;28056;51.112;0.984;2023-11-21T04:01:57;0;0;
42410;PMS5003;28056;51.112;0.984;2023-11-21T04:04:25;0;0;
42410;PMS5003;28056;51.112;0.984;2023-11-21T04:06:53;0;0;
42410;PMS5003;28056;51.112;0.984;2023-11-21T04:09:19;0;0;
42410;PMS5003;28056;51.112;0.984;2023-11-21T04:11:46;0;0;
42410;PMS5003;28056;51.112;0.984;2023-11-21T04:14:13;0;0;
42410;PMS5003;28056;51.112;0.984;2023-11-21T04:16:41;0;0;
42410;PMS5003;28056;51.112;0.984;2023-11-21T04:19:09;1;1;
42410;PMS5003;28056;51.112;0.984;2023-11-21T04:21:37;2;1;
42410;PMS5003;28056;51.112;0.984;2023-11-21T04:24:05;1;1;
42410;PMS5003;28056;51.112;0.984;2023-11-21T04:26:33;0;0;
42410;PMS5003;28056;51.112;0.984;2023-11-21T04:29:01;0;0;
42410;PMS5003;28056;51.112;0.984;2023-11-21T04:31:28;1;1;
42410;PMS5003;28056;51.112;0.984;2023-11-21T04:33:56;1;1;
42410;PMS5003;28056;51.112;0.984;2023-11-21T04:36:23;1;1;
42410;PMS5003;28056;51.112;0.984;2023-11-21T04:38:51;1;1;
42410;PMS5003;28056;51.112;0.984;2023-11-21T04:41:18;1;1;
42410;PMS5003;28056;51.112;0.984;2023-11-21T04:43:45;1;1;
42410;PMS5003;28056;51.112;0.984;2023-11-21T04:46:12;1;1;
42410;PMS5003;28056;51.112;0.984;2023-11-21T04:48:39;0;0;
42410;PMS5003;28056;51.112;0.984;2023-11-21T04:51:07;1;1;
42410;PMS5003;28056;51.112;0.984;2023-11-21T04:53:34;2;1;
42410;PMS5003;28056;51.112;0.984;2023-11-21T04:56:01;2;0;
42410;PMS5003;28056;51.112;0.984;2023-11-21T04:58:29;1;1;
42410;PMS5003;28056;51.112;0.984;2023-11-21T05:00:57;1;1;
42410;PMS5003;28056;51.112;0.984;2023-11-21T05:03:24;1;1;
42410;PMS5003;28056;51.112;0.984;2023-11-21T05:05:51;1;1;
42410;PMS5003;28056;51.112;0.984;2023-11-21T05:08:19;1;1;
42410;PMS5003;28056;51.112;0.984;2023-11-21T05:10:46;1;1;
42410;PMS5003;28056;51.112;0.984;2023-11-21T05:13:13;2;2;
42410;PMS5003;28056;51.112;0.984;2023-11-21T05:15:40;1;1;
42410;PMS5003;28056;51.112;0.984;2023-11-21T05:18:07;2;2;
42410;PMS5003;28056;51.112;0.984;2023-11-21T05:20:35;2;2;
42410;PMS5003;28056;51.112;0.984;2023-11-21T05:23:03;2;2;
42410;PMS5003;28056;51.112;0.984;2023-11-21T05:25:31;1;1;
42410;PMS5003;28056;51.112;0.984;2023-11-21T05:27:58;2;2;
42410;PMS5003;28056;51.112;0.984;2023-11-21T05:30:25;1;1;
42410;PMS5003;28056;51.112;0.984;2023-11-21T05:32:53;2;2;
42410;PMS5003;28056;51.112;0.984;2023-11-21T05:35:20;1;1;
42410;PMS5003;28056;51.112;0.984;2023-11-21T05:37:47;2;2;
42410;PMS5003;28056;51.112;0.984;2023-11-21T05:40:14;1;1;
42410;PMS5003;28056;51.112;0.984;2023-11-21T05:42:42;2;1;
42410;PMS5003;28056;51.112;0.984;2023-11-21T05:45:10;1;1;
42410;PMS5003;28056;51.112;0.984;2023-11-21T05:47:38;1;1;
42410;PMS5003;28056;51.112;0.984;2023-11-21T05:50:07;2;1;
42410;PMS5003;28056;51.112;0.984;2023-11-21T05:52:34;1;1;
42410;PMS5003;28056;51.112;0.984;2023-11-21T05:55:02;1;1;
42410;PMS5003;28056;51.112;0.984;2023-11-21T05:57:30;0;0;
42410;PMS5003;28056;51.112;0.984;2023-11-21T05:59:57;1;1;
42410;PMS5003;28056;51.112;0.984;2023-11-21T06:02:24;1;1;
42410;PMS5003;28056;51.112;0.984;2023-11-21T06:04:51;1;1;
42410;PMS5003;28056;51.112;0.984;2023-11-21T06:07:18;1;1;
42410;PMS5003;28056;51.112;0.984;2023-11-21T06:09:45;0;0;
42410;PMS5003;28056;51.112;0.984;2023-11-21T06:12:11;3;1;
42410;PMS5003;28056;51.112;0.984;2023-11-21T06:14:38;1;1;
42410;PMS5003;28056;51.112;0.984;2023-11-21T06:17:05;1;1;
42410;PMS5003;28056;51.112;0.984;2023-11-21T06:19:32;0;0;
42410;PMS5003;28056;51.112;0.984;2023-11-21T06:22:00;2;2;
42410;PMS5003;28056;51.112;0.984;2023-11-21T06:24:27;2;0;
42410;PMS5003;28056;51.112;0.984;2023-11-21T06:26:55;1;1;
42410;PMS5003;28056;51.112;0.984;2023-11-21T06:29:21;5;1;
42410;PMS5003;28056;51.112;0.984;2023-11-21T06:31:49;0;0;
42410;PMS5003;28056;51.112;0.984;2023-11-21T06:34:16;0;0;
42410;PMS5003;28056;51.112;0.984;2023-11-21T06:36:43;1;1;
42410;PMS5003;28056;51.112;0.984;2023-11-21T06:39:10;0;0;
42410;PMS5003;28056;51.112;0.984;2023-11-21T06:41:38;0;0;
42410;PMS5003;28056;51.112;0.984;2023-11-21T06:44:05;1;1;
42410;PMS5003;28056;51.112;0.984;2023-11-21T06:46:33;1;1;
42410;PMS5003;28056;51.112;0.984;2023-11-21T06:49:00;1;1;
42410;PMS5003;28056;51.112;0.984;2023-11-21T06:51:28;2;2;
42410;PMS5003;28056;51.112;0.984;2023-11-21T06:53:56;1;1;
42410;PMS5003;28056;51.112;0.984;2023-11-21T06:56:23;1;1;
42410;PMS5003;28056;51.112;0.984;2023-11-21T06:58:50;1;1;
42410;PMS5003;28056;51.112;0.984;2023-11-21T07:01:17;0;0;
42410;PMS5003;28056;51.112;0.984;2023-11-21T07:03:44;0;0;
42410;PMS5003;28056;51.112;0.984;2023-11-21T07:06:12;0;0;
42410;PMS5003;28056;51.112;0.984;2023-11-21T07:08:39;1;1;
42410;PMS5003;28056;51.112;0.984;2023-11-21T07:11:06;1;1;
42410;PMS5003;28056;51.112;0.984;2023-11-21T07:13:33;1;1;
42410;PMS5003;28056;51.112;0.984;2023-11-21T07:16:01;1;1;
42410;PMS5003;28056;51.112;0.984;2023-11-21T07:18:28;5;2;
42410;PMS5003;28056;51.112;0.984;2023-11-21T07:20:55;1;1;
42410;PMS5003;28056;51.112;0.984;2023-11-21T07:23:22;1;1;
42410;PMS5003;28056;51.112;0.984;2023-11-21T07:25:49;1;1;
42410;PMS5003;28056;51.112;0.984;2023-11-21T07:28:16;3;1;
42410;PMS5003;28056;51.112;0.984;2023-11-21T07:30:43;1;1;
42410;PMS5003;28056;51.112;0.984;2023-11-21T07:33:10;1;1;
42410;PMS5003;28056;51.112;0.984;2023-11-21T07:35:38;1;1;
42410;PMS5003;28056;51.112;0.984;2023-11-21T07:38:05;1;1;
42410;PMS5003;28056;51.112;0.984;2023-11-21T07:40:32;1;1;
42410;PMS5003;28056;51.112;0.984;2023-11-21T07:42:59;3;1;
42410;PMS5003;28056;51.112;0.984;2023-11-21T07:45:26;1;1;
42410;PMS5003;28056;51.112;0.984;2023-11-21T07:47:54;1;1;
42410;PMS5003;28056;51.112;0.984;2023-11-21T07:50:21;2;1;
42410;PMS5003;28056;51.112;0.984;2023-11-21T07:52:49;1;1;
42410;PMS5003;28056;51.112;0.984;2023-11-21T07:55:16;0;0;
42410;PMS5003;28056;51.112;0.984;2023-11-21T07:57:43;1;1;
42410;PMS5003;28056;51.112;0.984;2023-11-21T08:00:10;0;0;
42410;PMS5003;28056;51.112;0.984;2023-11-21T08:02:38;1;1;
42410;PMS5003;28056;51.112;0.984;2023-11-21T08:05:06;0;0;
42410;PMS5003;28056;51.112;0.984;2023-11-21T08:07:34;1;1;
42410;PMS5003;28056;51.112;0.984;2023-11-21T08:10:01;2;2;
42410;PMS5003;28056;51.112;0.984;2023-11-21T08:12:30;0;0;
42410;PMS5003;28056;51.112;0.984;2023-11-21T08:14:57;3;1;
42410;PMS5003;28056;51.112;0.984;2023-11-21T08:17:24;2;2;
42410;PMS5003;28056;51.112;0.984;2023-11-21T08:19:52;2;2;
42410;PMS5003;28056;51.112;0.984;2023-11-21T08:22:19;2;2;
42410;PMS5003;28056;51.112;0.984;2023-11-21T08:24:47;2;2;
42410;PMS5003;28056;51.112;0.984;2023-11-21T08:27:14;1;1;
42410;PMS5003;28056;51.112;0.984;2023-11-21T08:29:41;1;1;
42410;PMS5003;28056;51.112;0.984;2023-11-21T08:32:09;5;1;
42410;PMS5003;28056;51.112;0.984;2023-11-21T08:34:36;1;1;
42410;PMS5003;28056;51.112;0.984;2023-11-21T08:37:03;1;1;
42410;PMS5003;28056;51.112;0.984;2023-11-21T08:39:30;1;1;
42410;PMS5003;28056;51.112;0.984;2023-11-21T08:41:57;1;1;
42410;PMS5003;28056;51.112;0.984;2023-11-21T08:44:24;2;1;
42410;PMS5003;28056;51.112;0.984;2023-11-21T08:46:51;2;2;
42410;PMS5003;28056;51.112;0.984;2023-11-21T08:49:18;0;0;
42410;PMS5003;28056;51.112;0.984;2023-11-21T08:51:45;0;0;
42410;PMS5003;28056;51.112;0.984;2023-11-21T08:54:12;0;0;
42410;PMS5003;28056;51.112;0.984;2023-11-21T08:56:39;3;1;
42410;PMS5003;28056;51.112;0.984;2023-11-21T08:59:06;1;1;
42410;PMS5003;28056;51.112;0.984;2023-11-21T09:01:33;2;2;
42410;PMS5003;28056;51.112;0.984;2023-11-21T09:04:01;1;1;
42410;PMS5003;28056;51.112;0.984;2023-11-21T09:06:28;0;0;
42410;PMS5003;28056;51.112;0.984;2023-11-21T09:08:56;1;1;
42410;PMS5003;28056;51.112;0.984;2023-11-21T09:11:24;0;0;
42410;PMS5003;28056;51.112;0.984;2023-11-21T09:13:52;0;0;
42410;PMS5003;28056;51.112;0.984;2023-11-21T09:16:19;0;0;
42410;PMS5003;28056;51.112;0.984;2023-11-21T09:18:47;1;1;
42410;PMS5003;28056;51.112;0.984;2023-11-21T09:21:15;1;1;
42410;PMS5003;28056;51.112;0.984;2023-11-21T09:23:43;1;1;
42410;PMS5003;28056;51.112;0.984;2023-11-21T09:26:11;2;2;
42410;PMS5003;28056;51.112;0.984;2023-11-21T09:28:39;2;2;
42410;PMS5003;28056;51.112;0.984;2023-11-21T09:31:06;1;1;
42410;PMS5003;28056;51.112;0.984;2023-11-21T09:33:33;0;0;
42410;PMS5003;28056;51.112;0.984;2023-11-21T09:36:00;1;1;
42410;PMS5003;28056;51.112;0.984;2023-11-21T09:38:28;1;1;
42410;PMS5003;28056;51.112;0.984;2023-11-21T09:40:56;1;1;
42410;PMS5003;28056;51.112;0.984;2023-11-21T09:43:24;2;2;
42410;PMS5003;28056;51.112;0.984;2023-11-21T09:45:54;2;2;
42410;PMS5003;28056;51.112;0.984;2023-11-21T09:48:25;2;2;
42410;PMS5003;28056;51.112;0.984;2023-11-21T09:50:53;2;2;
42410;PMS5003;28056;51.112;0.984;2023-11-21T09:53:22;2;2;
42410;PMS5003;28056;51.112;0.984;2023-11-21T09:55:49;5;3;
42410;PMS5003;28056;51.112;0.984;2023-11-21T09:58:18;3;1;
42410;PMS5003;28056;51.112;0.984;2023-11-21T10:00:46;1;1;
42410;PMS5003;28056;51.112;0.984;2023-11-21T10:03:15;1;1;
42410;PMS5003;28056;51.112;0.984;2023-11-21T10:05:43;3;3;
42410;PMS5003;28056;51.112;0.984;2023-11-21T10:08:12;1;1;
42410;PMS5003;28056;51.112;0.984;2023-11-21T10:10:42;1;1;
42410;PMS5003;28056;51.112;0.984;2023-11-21T10:13:11;1;1;
42410;PMS5003;28056;51.112;0.984;2023-11-21T10:15:39;1;1;
42410;PMS5003;28056;51.112;0.984;2023-11-21T10:18:08;2;1;
42410;PMS5003;28056;51.112;0.984;2023-11-21T10:20:35;1;1;
42410;PMS5003;28056;51.112;0.984;2023-11-21T10:23:02;1;1;
42410;PMS5003;28056;51.112;0.984;2023-11-21T10:25:29;1;1;
42410;PMS5003;28056;51.112;0.984;2023-11-21T10:27:58;1;1;
42410;PMS5003;28056;51.112;0.984;2023-11-21T10:30:28;5;1;
42410;PMS5003;28056;51.112;0.984;2023-11-21T10:32:58;1;1;
42410;PMS5003;28056;51.112;0.984;2023-11-21T10:35:26;1;1;
42410;PMS5003;28056;51.112;0.984;2023-11-21T10:38:06;1;1;
42410;PMS5003;28056;51.112;0.984;2023-11-21T10:40:33;2;1;
42410;PMS5003;28056;51.112;0.984;2023-11-21T10:43:05;1;1;
42410;PMS5003;28056;51.112;0.984;2023-11-21T10:45:34;0;0;
42410;PMS5003;28056;51.112;0.984;2023-11-21T10:48:04;0;0;
42410;PMS5003;28056;51.112;0.984;2023-11-21T10:50:33;1;1;
42410;PMS5003;28056;51.112;0.984;2023-11-21T10:53:01;1;1;
42410;PMS5003;28056;51.112;0.984;2023-11-21T10:55:29;2;2;
42410;PMS5003;28056;51.112;0.984;2023-11-21T10:57:58;2;2;
42410;PMS5003;28056;51.112;0.984;2023-11-21T11:00:27;2;2;
42410;PMS5003;28056;51.112;0.984;2023-11-21T11:02:55;1;1;
42410;PMS5003;28056;51.112;0.984;2023-11-21T11:05:27;1;1;
42410;PMS5003;28056;51.112;0.984;2023-11-21T11:07:58;1;1;
42410;PMS5003;28056;51.112;0.984;2023-11-21T11:10:26;2;2;
42410;PMS5003;28056;51.112;0.984;2023-11-21T11:12:54;5;3;
42410;PMS5003;28056;51.112;0.984;2023-11-21T11:15:23;3;1;
42410;PMS5003;28056;51.112;0.984;2023-11-21T11:17:51;2;2;
42410;PMS5003;28056;51.112;0.984;2023-11-21T11:20:19;2;2;
42410;PMS5003;28056;51.112;0.984;2023-11-21T11:22:50;3;3;
42410;PMS5003;28056;51.112;0.984;2023-11-21T11:25:36;3;2;
42410;PMS5003;28056;51.112;0.984;2023-11-21T11:28:19;3;3;
42410;PMS5003;28056;51.112;0.984;2023-11-21T11:30:53;5;2;
42410;PMS5003;28056;51.112;0.984;2023-11-21T11:33:35;1;1;
42410;PMS5003;28056;51.112;0.984;2023-11-21T11:36:06;5;5;
42410;PMS5003;28056;51.112;0.984;2023-11-21T11:38:36;6;5;
42410;PMS5003;28056;51.112;0.984;2023-11-21T11:41:05;5;5;
42410;PMS5003;28056;51.112;0.984;2023-11-21T11:43:33;8;8;
42410;PMS5003;28056;51.112;0.984;2023-11-21T11:46:02;8;8;
42410;PMS5003;28056;51.112;0.984;2023-11-21T11:48:30;6;5;
42410;PMS5003;28056;51.112;0.984;2023-11-21T11:51:05;8;7;
42410;PMS5003;28056;51.112;0.984;2023-11-21T11:53:38;8;6;
42410;PMS5003;28056;51.112;0.984;2023-11-21T11:56:23;5;5;
42410;PMS5003;28056;51.112;0.984;2023-11-21T11:58:53;5;5;
42410;PMS5003;28056;51.112;0.984;2023-11-21T12:01:22;7;4;
42410;PMS5003;28056;51.112;0.984;2023-11-21T12:04:23;5;5;
42410;PMS5003;28056;51.112;0.984;2023-11-21T12:06:51;3;3;
42410;PMS5003;28056;51.112;0.984;2023-11-21T12:09:19;3;3;
42410;PMS5003;28056;51.112;0.984;2023-11-21T12:11:48;2;2;
42410;PMS5003;28056;51.112;0.984;2023-11-21T12:14:16;3;3;
42410;PMS5003;28056;51.112;0.984;2023-11-21T12:16:43;2;2;
42410;PMS5003;28056;51.112;0.984;2023-11-21T12:19:11;6;5;
42410;PMS5003;28056;51.112;0.984;2023-11-21T12:21:39;5;5;
42410;PMS5003;28056;51.112;0.984;2023-11-21T12:24:07;5;5;
42410;PMS5003;28056;51.112;0.984;2023-11-21T12:26:34;7;7;
42410;PMS5003;28056;51.112;0.984;2023-11-21T12:29:02;6;6;
42410;PMS5003;28056;51.112;0.984;2023-11-21T12:31:30;6;6;
42410;PMS5003;28056;51.112;0.984;2023-11-21T12:33:58;8;7;
42410;PMS5003;28056;51.112;0.984;2023-11-21T12:36:26;3;3;
42410;PMS5003;28056;51.112;0.984;2023-11-21T12:38:54;7;7;
42410;PMS5003;28056;51.112;0.984;2023-11-21T12:41:21;5;5;
42410;PMS5003;28056;51.112;0.984;2023-11-21T12:43:49;3;3;
42410;PMS5003;28056;51.112;0.984;2023-11-21T12:46:16;4;3;
42410;PMS5003;28056;51.112;0.984;2023-11-21T12:48:44;7;3;
42410;PMS5003;28056;51.112;0.984;2023-11-21T12:51:11;2;2;
42410;PMS5003;28056;51.112;0.984;2023-11-21T12:53:39;2;2;
42410;PMS5003;28056;51.112;0.984;2023-11-21T12:56:09;2;2;
42410;PMS5003;28056;51.112;0.984;2023-11-21T12:58:37;3;3;
42410;PMS5003;28056;51.112;0.984;2023-11-21T13:01:06;3;3;
42410;PMS5003;28056;51.112;0.984;2023-11-21T13:03:35;1;1;
42410;PMS5003;28056;51.112;0.984;2023-11-21T13:06:03;2;2;
42410;PMS5003;28056;51.112;0.984;2023-11-21T13:08:31;3;3;
42410;PMS5003;28056;51.112;0.984;2023-11-21T13:10:59;5;5;
42410;PMS5003;28056;51.112;0.984;2023-11-21T13:13:27;4;4;
42410;PMS5003;28056;51.112;0.984;2023-11-21T13:15:56;6;5;
42410;PMS5003;28056;51.112;0.984;2023-11-21T13:18:24;21;18;
42410;PMS5003;28056;51.112;0.984;2023-11-21T13:20:52;21;18;
42410;PMS5003;28056;51.112;0.984;2023-11-21T13:23:19;17;17;
42410;PMS5003;28056;51.112;0.984;2023-11-21T13:25:47;15;15;
42410;PMS5003;28056;51.112;0.984;2023-11-21T13:28:14;12;12;
42410;PMS5003;28056;51.112;0.984;2023-11-21T13:30:42;11;11;
42410;PMS5003;28056;51.112;0.984;2023-11-21T13:33:10;6;6;
42410;PMS5003;28056;51.112;0.984;2023-11-21T13:35:38;3;3;
42410;PMS5003;28056;51.112;0.984;2023-11-21T13:38:06;3;3;
42410;PMS5003;28056;51.112;0.984;2023-11-21T13:40:35;7;6;
42410;PMS5003;28056;51.112;0.984;2023-11-21T13:43:04;2;2;
42410;PMS5003;28056;51.112;0.984;2023-11-21T13:45:32;2;2;
42410;PMS5003;28056;51.112;0.984;2023-11-21T13:47:59;4;3;
42410;PMS5003;28056;51.112;0.984;2023-11-21T13:50:26;2;2;
42410;PMS5003;28056;51.112;0.984;2023-11-21T13:52:53;4;4;
42410;PMS5003;28056;51.112;0.984;2023-11-21T13:55:20;3;2;
42410;PMS5003;28056;51.112;0.984;2023-11-21T13:57:47;4;4;
42410;PMS5003;28056;51.112;0.984;2023-11-21T14:00:15;4;4;
42410;PMS5003;28056;51.112;0.984;2023-11-21T14:02:43;7;7;
42410;PMS5003;28056;51.112;0.984;2023-11-21T14:05:11;9;8;
42410;PMS5003;28056;51.112;0.984;2023-11-21T14:07:38;6;6;
42410;PMS5003;28056;51.112;0.984;2023-11-21T14:10:07;9;7;
42410;PMS5003;28056;51.112;0.984;2023-11-21T14:12:34;8;7;
42410;PMS5003;28056;51.112;0.984;2023-11-21T14:15:01;6;6;
42410;PMS5003;28056;51.112;0.984;2023-11-21T14:17:29;8;7;
42410;PMS5003;28056;51.112;0.984;2023-11-21T14:19:57;6;6;
42410;PMS5003;28056;51.112;0.984;2023-11-21T14:22:25;3;3;
42410;PMS5003;28056;51.112;0.984;2023-11-21T14:24:52;3;3;
42410;PMS5003;28056;51.112;0.984;2023-11-21T14:27:20;2;2;
42410;PMS5003;28056;51.112;0.984;2023-11-21T14:29:47;2;2;
42410;PMS5003;28056;51.112;0.984;2023-11-21T14:32:14;3;3;
42410;PMS5003;28056;51.112;0.984;2023-11-21T14:34:41;4;3;
42410;PMS5003;28056;51.112;0.984;2023-11-21T14:37:07;4;4;
42410;PMS5003;28056;51.112;0.984;2023-11-21T14:39:34;4;4;
42410;PMS5003;28056;51.112;0.984;2023-11-21T14:42:01;3;3;
42410;PMS5003;28056;51.112;0.984;2023-11-21T14:44:29;2;2;
42410;PMS5003;28056;51.112;0.984;2023-11-21T14:46:56;3;2;
42410;PMS5003;28056;51.112;0.984;2023-11-21T14:49:23;2;1;
42410;PMS5003;28056;51.112;0.984;2023-11-21T14:51:51;2;2;
42410;PMS5003;28056;51.112;0.984;2023-11-21T14:54:20;3;3;
42410;PMS5003;28056;51.112;0.984;2023-11-21T14:56:47;3;3;
42410;PMS5003;28056;51.112;0.984;2023-11-21T14:59:14;3;3;
42410;PMS5003;28056;51.112;0.984;2023-11-21T15:01:41;3;3;
42410;PMS5003;28056;51.112;0.984;2023-11-21T15:04:09;2;2;
42410;PMS5003;28056;51.112;0.984;2023-11-21T15:06:37;3;3;
42410;PMS5003;28056;51.112;0.984;2023-11-21T15:09:05;3;1;
42410;PMS5003;28056;51.112;0.984;2023-11-21T15:11:33;3;2;
42410;PMS5003;28056;51.112;0.984;2023-11-21T15:14:00;2;2;
42410;PMS5003;28056;51.112;0.984;2023-11-21T15:16:28;1;1;
42410;PMS5003;28056;51.112;0.984;2023-11-21T15:18:55;1;1;
42410;PMS5003;28056;51.112;0.984;2023-11-21T15:21:22;3;3;
42410;PMS5003;28056;51.112;0.984;2023-11-21T15:23:49;1;1;
42410;PMS5003;28056;51.112;0.984;2023-11-21T15:26:16;1;1;
42410;PMS5003;28056;51.112;0.984;2023-11-21T15:28:45;2;2;
42410;PMS5003;28056;51.112;0.984;2023-11-21T15:31:12;2;2;
42410;PMS5003;28056;51.112;0.984;2023-11-21T15:33:39;4;2;
42410;PMS5003;28056;51.112;0.984;2023-11-21T15:36:08;3;3;
42410;PMS5003;28056;51.112;0.984;2023-11-21T15:38:35;2;2;
42410;PMS5003;28056;51.112;0.984;2023-11-21T15:41:03;1;1;
42410;PMS5003;28056;51.112;0.984;2023-11-21T15:43:31;2;1;
42410;PMS5003;28056;51.112;0.984;2023-11-21T15:45:58;1;1;
42410;PMS5003;28056;51.112;0.984;2023-11-21T15:48:25;4;2;
42410;PMS5003;28056;51.112;0.984;2023-11-21T15:50:52;3;2;
42410;PMS5003;28056;51.112;0.984;2023-11-21T15:53:19;1;1;
42410;PMS5003;28056;51.112;0.984;2023-11-21T15:55:46;4;3;
42410;PMS5003;28056;51.112;0.984;2023-11-21T15:58:14;3;3;
42410;PMS5003;28056;51.112;0.984;2023-11-21T16:00:41;5;5;
42410;PMS5003;28056;51.112;0.984;2023-11-21T16:03:08;6;5;
42410;PMS5003;28056;51.112;0.984;2023-11-21T16:05:35;3;3;
42410;PMS5003;28056;51.112;0.984;2023-11-21T16:08:03;2;1;
42410;PMS5003;28056;51.112;0.984;2023-11-21T16:10:30;1;1;
42410;PMS5003;28056;51.112;0.984;2023-11-21T16:12:58;7;5;
42410;PMS5003;28056;51.112;0.984;2023-11-21T16:15:25;3;3;
42410;PMS5003;28056;51.112;0.984;2023-11-21T16:17:53;2;1;
42410;PMS5003;28056;51.112;0.984;2023-11-21T16:20:20;2;2;
42410;PMS5003;28056;51.112;0.984;2023-11-21T16:22:47;3;2;
42410;PMS5003;28056;51.112;0.984;2023-11-21T16:25:14;3;2;
42410;PMS5003;28056;51.112;0.984;2023-11-21T16:27:41;1;1;
42410;PMS5003;28056;51.112;0.984;2023-11-21T16:30:09;2;2;
42410;PMS5003;28056;51.112;0.984;2023-11-21T16:32:37;1;1;
42410;PMS5003;28056;51.112;0.984;2023-11-21T16:35:05;2;2;
42410;PMS5003;28056;51.112;0.984;2023-11-21T16:37:33;2;2;
42410;PMS5003;28056;51.112;0.984;2023-11-21T16:40:01;2;1;
42410;PMS5003;28056;51.112;0.984;2023-11-21T16:42:29;1;1;
42410;PMS5003;28056;51.112;0.984;2023-11-21T16:44:56;2;1;
42410;PMS5003;28056;51.112;0.984;2023-11-21T16:47:22;3;3;
42410;PMS5003;28056;51.112;0.984;2023-11-21T16:49:50;1;1;
42410;PMS5003;28056;51.112;0.984;2023-11-21T16:52:18;3;3;